Time;durP1;ratioP1;P1;durP2;ratioP2;P2;SDS_P1;SDS_P2;PMS_P1;PMS_P2;Temp;Humidity;BMP_temperature;BMP_pressure;BME280_temperature;BME280_humidity;BME280_pressure;Samples;Min_cycle;Max_cycle;Signal;HPM_P1;HPM_P2
2021/06/09 00:01:06;;;;;;;;;;;14.20;75.00;;;;;;5070127;28;20136;-65
2021/06/09 00:03:32;;;;;;;;;;;14.10;75.20;;;;;;5070155;28;20334;-66
2021/06/09 00:05:58;;;;;;;;;;;14.20;75.30;;;;;;5070175;28;20428;-66
2021/06/09 00:08:23;;;;;;;;;;;14.10;75.40;;;;;;5070448;28;19927;-66
2021/06/09 00:10:54;;;;;;;;;;;14.00;75.50;;;;;;5070535;28;19967;-66
2021/06/09 00:13:19;;;;;;;;;;;14.10;75.80;;;;;;5069693;28;19921;-66
2021/06/09 00:15:45;;;;;;;;;;;14.00;75.90;;;;;;5056277;28;19916;-66
2021/06/09 00:18:11;;;;;;;;;;;14.00;76.10;;;;;;5074086;28;20437;-66
2021/06/09 00:20:37;;;;;;;;;;;13.90;76.20;;;;;;5073798;28;19916;-66
2021/06/09 00:23:03;;;;;;;;;;;13.90;76.40;;;;;;5056173;28;19921;-66
2021/06/09 00:25:28;;;;;;;;;;;13.90;76.60;;;;;;5073662;28;19959;-65
2021/06/09 00:27:56;;;;;;;;;;;13.80;76.70;;;;;;5056092;28;20364;-66
2021/06/09 00:30:30;;;;;;;;;;;13.80;76.90;;;;;;5056083;28;19916;-66
2021/06/09 00:32:56;;;;;;;;;;;13.80;77.10;;;;;;5073090;28;19928;-66
2021/06/09 00:35:21;;;;;;;;;;;13.80;77.30;;;;;;5073975;28;19917;-66
2021/06/09 00:37:47;;;;;;;;;;;13.70;77.30;;;;;;5073339;28;19999;-64
2021/06/09 00:40:13;;;;;;;;;;;13.70;77.50;;;;;;5073838;28;19921;-66
2021/06/09 00:42:38;;;;;;;;;;;13.70;77.60;;;;;;5073697;28;19927;-66
2021/06/09 00:45:05;;;;;;;;;;;13.70;77.80;;;;;;5072928;28;19928;-66
2021/06/09 00:47:30;;;;;;;;;;;13.60;77.90;;;;;;5073581;28;19965;-66
2021/06/09 00:49:56;;;;;;;;;;;13.60;78.00;;;;;;5055734;28;20007;-66
2021/06/09 00:52:22;;;;;;;;;;;13.50;78.20;;;;;;5073211;28;19923;-66
2021/06/09 00:54:48;;;;;;;;;;;13.50;78.30;;;;;;5055357;28;20379;-66
2021/06/09 00:57:14;;;;;;;;;;;13.50;78.50;;;;;;5072918;28;19970;-66
2021/06/09 00:59:39;;;;;;;;;;;13.50;78.70;;;;;;5073537;28;19920;-66
2021/06/09 01:02:05;;;;;;;;;;;13.50;78.80;;;;;;5073465;28;19921;-65
2021/06/09 01:04:31;;;;;;;;;;;13.40;78.90;;;;;;5072662;28;19917;-66
2021/06/09 01:06:59;;;;;;;;;;;13.40;79.10;;;;;;5073316;28;19959;-66
2021/06/09 01:09:25;;;;;;;;;;;13.40;79.30;;;;;;5073247;28;20384;-66
2021/06/09 01:11:51;;;;;;;;;;;13.30;79.40;;;;;;5072975;28;19947;-66
2021/06/09 01:14:16;;;;;;;;;;;13.30;79.60;;;;;;5072467;28;19923;-66
2021/06/09 01:16:42;;;;;;;;;;;13.30;79.70;;;;;;5072644;28;19928;-66
2021/06/09 01:19:07;;;;;;;;;;;13.20;79.80;;;;;;5055278;28;19964;-66
2021/06/09 01:21:33;;;;;;;;;;;13.20;80.00;;;;;;5055296;28;19935;-66
2021/06/09 01:23:59;;;;;;;;;;;13.20;80.20;;;;;;5072111;28;19917;-66
2021/06/09 01:26:26;;;;;;;;;;;13.20;80.30;;;;;;5072914;28;19955;-66
2021/06/09 01:28:55;;;;;;;;;;;13.10;80.40;;;;;;5073638;28;19917;-66
2021/06/09 01:31:21;;;;;;;;;;;13.10;80.50;;;;;;5073273;28;19924;-66
2021/06/09 01:33:47;;;;;;;;;;;13.10;80.70;;;;;;5072738;28;19995;-66
2021/06/09 01:36:12;;;;;;;;;;;13.10;80.80;;;;;;5055173;28;19963;-66
2021/06/09 01:38:38;;;;;;;;;;;13.00;80.90;;;;;;5055480;28;20003;-66
2021/06/09 01:41:04;;;;;;;;;;;13.00;81.00;;;;;;5073515;28;19924;-66
2021/06/09 01:43:30;;;;;;;;;;;13.00;81.10;;;;;;5072158;28;20013;-66
2021/06/09 01:45:56;;;;;;;;;;;13.00;81.20;;;;;;5073189;28;19923;-66
2021/06/09 01:48:22;;;;;;;;;;;13.00;81.30;;;;;;5054949;28;19960;-66
2021/06/09 01:50:47;;;;;;;;;;;13.00;81.40;;;;;;5055628;28;20009;-66
2021/06/09 01:53:13;;;;;;;;;;;12.90;81.50;;;;;;5072951;28;20000;-66
2021/06/09 01:55:39;;;;;;;;;;;12.90;81.70;;;;;;5072722;28;19916;-68
2021/06/09 01:58:05;;;;;;;;;;;12.90;81.80;;;;;;5072960;28;20346;-68
2021/06/09 02:00:32;;;;;;;;;;;12.90;81.90;;;;;;5073004;28;19943;-69
2021/06/09 02:02:59;;;;;;;;;;;12.90;82.20;;;;;;5072319;28;20322;-69
2021/06/09 02:05:25;;;;;;;;;;;12.90;82.10;;;;;;5072891;28;19974;-68
2021/06/09 02:07:51;;;;;;;;;;;12.90;82.10;;;;;;5072275;28;19962;-69
2021/06/09 02:10:18;;;;;;;;;;;12.80;82.10;;;;;;5072866;28;20354;-69
2021/06/09 02:12:45;;;;;;;;;;;12.80;82.20;;;;;;5072984;28;19923;-69
2021/06/09 02:15:11;;;;;;;;;;;12.80;82.50;;;;;;5071670;28;20322;-69
2021/06/09 02:17:37;;;;;;;;;;;12.70;82.50;;;;;;5054763;28;19913;-69
2021/06/09 02:20:03;;;;;;;;;;;12.70;82.60;;;;;;5072193;28;19961;-68
2021/06/09 02:22:29;;;;;;;;;;;12.70;82.70;;;;;;5072511;28;19956;-66
2021/06/09 02:24:55;;;;;;;;;;;12.70;82.80;;;;;;5054454;28;19952;-66
2021/06/09 02:27:21;;;;;;;;;;;12.70;82.90;;;;;;5071883;28;20341;-66
2021/06/09 02:29:46;;;;;;;;;;;12.70;83.00;;;;;;5072375;28;19920;-66
2021/06/09 02:32:16;;;;;;;;;;;12.70;83.10;;;;;;5072431;28;20386;-69
2021/06/09 02:34:41;;;;;;;;;;;12.60;83.10;;;;;;5053481;28;19999;-68
2021/06/09 02:37:08;;;;;;;;;;;12.60;83.10;;;;;;5070542;28;20050;-69
2021/06/09 02:39:34;;;;;;;;;;;12.60;83.20;;;;;;5071631;28;19973;-68
2021/06/09 02:41:59;;;;;;;;;;;12.50;83.30;;;;;;5072152;28;20377;-69
2021/06/09 02:44:25;;;;;;;;;;;12.60;83.40;;;;;;5071401;28;19923;-69
2021/06/09 02:46:55;;;;;;;;;;;12.50;83.40;;;;;;5071676;28;19913;-69
2021/06/09 02:49:31;;;;;;;;;;;12.50;83.60;;;;;;5072274;28;19920;-69
2021/06/09 02:52:15;;;;;;;;;;;12.50;83.60;;;;;;5071713;28;19923;-69
2021/06/09 02:54:46;;;;;;;;;;;12.50;83.70;;;;;;5069949;28;19940;-69
2021/06/09 02:57:30;;;;;;;;;;;12.40;83.80;;;;;;5071495;28;19921;-69
2021/06/09 03:00:05;;;;;;;;;;;12.40;84.00;;;;;;5071474;28;19917;-68
2021/06/09 03:02:41;;;;;;;;;;;12.40;84.10;;;;;;5071871;28;20368;-69
2021/06/09 03:05:07;;;;;;;;;;;12.40;84.20;;;;;;5070590;28;19924;-69
2021/06/09 03:07:44;;;;;;;;;;;12.40;84.30;;;;;;5071686;28;20296;-68
2021/06/09 03:10:19;;;;;;;;;;;12.40;84.30;;;;;;5071242;28;19962;-68
2021/06/09 03:12:51;;;;;;;;;;;12.40;84.50;;;;;;5053572;28;19916;-68
2021/06/09 03:15:30;;;;;;;;;;;12.40;84.60;;;;;;5071080;28;19940;-68
2021/06/09 03:17:58;;;;;;;;;;;12.30;84.60;;;;;;5071716;28;19917;-68
2021/06/09 03:20:32;;;;;;;;;;;12.40;84.70;;;;;;5053353;28;19924;-68
2021/06/09 03:23:09;;;;;;;;;;;12.40;84.70;;;;;;5070970;28;20017;-68
2021/06/09 03:25:38;;;;;;;;;;;12.40;84.80;;;;;;5053179;28;19916;-68
2021/06/09 03:28:16;;;;;;;;;;;12.50;84.90;;;;;;5071327;28;19925;-68
2021/06/09 03:30:43;;;;;;;;;;;12.40;84.80;;;;;;5071005;28;19916;-68
2021/06/09 03:33:11;;;;;;;;;;;12.50;85.00;;;;;;5053285;28;19916;-68
2021/06/09 03:35:39;;;;;;;;;;;12.50;85.00;;;;;;5053535;28;19970;-68
2021/06/09 03:38:08;;;;;;;;;;;12.50;85.00;;;;;;5071039;28;19917;-68
2021/06/09 03:40:36;;;;;;;;;;;12.50;85.10;;;;;;5053447;28;19923;-68
2021/06/09 03:43:03;;;;;;;;;;;12.50;85.20;;;;;;5052517;28;19959;-68
2021/06/09 03:45:30;;;;;;;;;;;12.50;85.20;;;;;;5071438;28;20342;-68
2021/06/09 03:47:56;;;;;;;;;;;12.60;85.30;;;;;;5070811;28;19920;-67
2021/06/09 03:50:25;;;;;;;;;;;12.60;85.40;;;;;;5074864;28;19916;-69
2021/06/09 03:52:52;;;;;;;;;;;12.70;85.50;;;;;;5074718;28;20431;-68
2021/06/09 03:55:21;;;;;;;;;;;12.70;85.50;;;;;;5056596;28;19974;-68
2021/06/09 03:57:49;;;;;;;;;;;12.70;85.70;;;;;;5112522;22;20448;-72
2021/06/09 04:00:15;;;;;;;;;;;12.80;85.70;;;;;;5077092;28;20291;-70
2021/06/09 04:02:42;;;;;;;;;;;12.80;85.70;;;;;;5077870;28;19924;-71
2021/06/09 04:05:08;;;;;;;;;;;12.90;85.80;;;;;;5095493;28;20298;-71
2021/06/09 04:07:33;;;;;;;;;;;12.90;85.80;;;;;;5093998;28;19970;-70
2021/06/09 04:10:01;;;;;;;;;;;12.90;85.80;;;;;;5095611;28;19939;-70
2021/06/09 04:12:28;;;;;;;;;;;13.00;85.90;;;;;;5087664;28;20372;-71
2021/06/09 04:14:54;;;;;;;;;;;13.10;86.00;;;;;;5070161;28;19916;-72
2021/06/09 04:17:22;;;;;;;;;;;13.10;86.00;;;;;;5098099;28;19917;-68
2021/06/09 04:19:49;;;;;;;;;;;13.20;86.00;;;;;;5088358;28;19956;-69
2021/06/09 04:22:14;;;;;;;;;;;13.20;86.00;;;;;;5074355;28;19915;-69
2021/06/09 04:24:41;;;;;;;;;;;13.30;86.10;;;;;;5071291;28;20399;-70
2021/06/09 04:27:08;;;;;;;;;;;13.30;86.10;;;;;;5065698;28;20380;-70
2021/06/09 04:29:34;;;;;;;;;;;13.40;86.10;;;;;;5071392;28;19973;-71
2021/06/09 04:32:00;;;;;;;;;;;13.50;86.20;;;;;;5061611;28;19920;-70
2021/06/09 04:34:25;;;;;;;;;;;13.60;86.30;;;;;;5092563;28;20269;-70
2021/06/09 04:36:51;;;;;;;;;;;13.70;86.30;;;;;;5093001;28;20360;-70
2021/06/09 04:39:17;;;;;;;;;;;13.80;86.30;;;;;;5084512;28;19920;-71
2021/06/09 04:41:43;;;;;;;;;;;13.80;86.30;;;;;;5068295;28;20296;-70
2021/06/09 04:44:08;;;;;;;;;;;13.90;86.30;;;;;;5086548;28;20283;-70
2021/06/09 04:46:34;;;;;;;;;;;14.00;86.30;;;;;;5048353;28;20003;-70
2021/06/09 04:49:04;;;;;;;;;;;14.10;86.30;;;;;;5067095;28;19982;-71
2021/06/09 04:51:31;;;;;;;;;;;14.30;86.40;;;;;;5085702;28;20005;-70
2021/06/09 04:53:57;;;;;;;;;;;14.30;86.30;;;;;;5086456;28;20296;-69
2021/06/09 04:56:23;;;;;;;;;;;14.50;86.40;;;;;;5065950;28;19925;-70
2021/06/09 04:58:48;;;;;;;;;;;14.70;86.40;;;;;;5085120;28;20265;-71
2021/06/09 05:01:14;;;;;;;;;;;14.80;86.20;;;;;;5068245;28;20011;-66
2021/06/09 05:03:40;;;;;;;;;;;14.90;86.00;;;;;;5070553;28;19912;-72
2021/06/09 05:06:05;;;;;;;;;;;15.00;85.90;;;;;;5091799;28;21379;-70
2021/06/09 05:08:31;;;;;;;;;;;15.20;85.80;;;;;;5079750;28;19999;-75
2021/06/09 05:10:58;;;;;;;;;;;15.30;85.60;;;;;;5098652;28;19927;-73
2021/06/09 05:13:38;;;;;;;;;;;15.50;85.50;;;;;;5098119;28;19920;-72
2021/06/09 05:16:06;;;;;;;;;;;15.70;85.20;;;;;;5099349;28;20006;-70
2021/06/09 05:18:37;;;;;;;;;;;15.80;84.90;;;;;;5082521;28;19983;-69
2021/06/09 05:21:03;;;;;;;;;;;16.00;84.60;;;;;;5073740;28;20346;-68
2021/06/09 05:23:33;;;;;;;;;;;16.20;84.20;;;;;;5057225;28;19916;-69
2021/06/09 05:25:59;;;;;;;;;;;16.40;83.80;;;;;;5072846;28;20330;-72
2021/06/09 05:28:26;;;;;;;;;;;16.60;83.30;;;;;;5074951;28;19955;-71
2021/06/09 05:30:58;;;;;;;;;;;16.80;82.50;;;;;;5073427;28;19917;-70
2021/06/09 05:33:25;;;;;;;;;;;17.00;82.00;;;;;;5054908;28;19954;-70
2021/06/09 05:35:52;;;;;;;;;;;17.20;81.40;;;;;;5073339;28;19917;-71
2021/06/09 05:38:18;;;;;;;;;;;17.40;80.90;;;;;;5073282;28;19924;-70
2021/06/09 05:40:44;;;;;;;;;;;17.60;80.40;;;;;;5072798;28;19923;-71
2021/06/09 05:43:09;;;;;;;;;;;18.10;80.70;;;;;;5054988;28;19916;-71
2021/06/09 05:45:36;;;;;;;;;;;19.40;85.80;;;;;;5073092;28;19924;-71
2021/06/09 05:48:01;;;;;;;;;;;21.10;89.00;;;;;;5072602;28;20383;-71
2021/06/09 05:50:31;;;;;;;;;;;22.90;87.20;;;;;;5073423;28;19927;-71
2021/06/09 05:52:58;;;;;;;;;;;24.10;81.90;;;;;;5072890;28;19924;-71
2021/06/09 05:55:28;;;;;;;;;;;25.20;78.10;;;;;;5074047;28;19916;-71
2021/06/09 05:57:54;;;;;;;;;;;26.30;74.70;;;;;;5071924;28;19974;-71
2021/06/09 06:00:25;;;;;;;;;;;27.40;71.80;;;;;;5055010;28;19920;-72
2021/06/09 06:02:53;;;;;;;;;;;28.40;67.70;;;;;;5072590;28;19923;-73
2021/06/09 06:05:20;;;;;;;;;;;29.10;63.90;;;;;;5072423;28;19916;-72
2021/06/09 06:07:46;;;;;;;;;;;29.90;60.50;;;;;;5054819;28;19916;-72
2021/06/09 06:10:12;;;;;;;;;;;30.50;57.70;;;;;;5054515;28;19917;-73
2021/06/09 06:12:39;;;;;;;;;;;31.00;54.90;;;;;;5071877;28;19939;-73
2021/06/09 06:15:06;;;;;;;;;;;31.60;53.00;;;;;;5054028;28;20392;-72
2021/06/09 06:17:31;;;;;;;;;;;32.10;49.90;;;;;;5054035;28;19916;-72
2021/06/09 06:19:57;;;;;;;;;;;32.50;48.00;;;;;;5055576;28;19920;-73
2021/06/09 06:22:23;;;;;;;;;;;33.00;46.50;;;;;;5073266;28;19923;-72
2021/06/09 06:24:50;;;;;;;;;;;33.50;44.40;;;;;;5054097;28;19916;-73
2021/06/09 06:27:16;;;;;;;;;;;33.90;42.50;;;;;;5038067;28;19917;-73
2021/06/09 06:29:44;;;;;;;;;;;34.40;41.20;;;;;;5037699;28;19920;-72
2021/06/09 06:32:11;;;;;;;;;;;34.80;39.40;;;;;;5072670;28;19917;-72
2021/06/09 06:34:39;;;;;;;;;;;35.10;38.10;;;;;;5055598;28;19978;-72
2021/06/09 06:37:06;;;;;;;;;;;35.50;37.10;;;;;;5037614;28;19931;-73
2021/06/09 06:39:31;;;;;;;;;;;35.80;36.10;;;;;;5054566;28;19964;-73
2021/06/09 06:41:57;;;;;;;;;;;36.30;35.40;;;;;;5072019;28;19955;-71
2021/06/09 06:44:23;;;;;;;;;;;36.50;34.10;;;;;;5053729;28;19917;-71
2021/06/09 06:46:49;;;;;;;;;;;36.00;33.20;;;;;;5072566;28;20349;-71
2021/06/09 06:49:18;;;;;;;;;;;36.10;33.60;;;;;;5053759;28;19928;-71
2021/06/09 06:51:45;;;;;;;;;;;36.60;33.00;;;;;;5071664;28;20419;-72
2021/06/09 06:54:11;;;;;;;;;;;37.00;32.00;;;;;;5069791;28;19920;-71
2021/06/09 06:56:37;;;;;;;;;;;37.50;31.00;;;;;;5070853;28;20020;-74
2021/06/09 06:59:02;;;;;;;;;;;38.10;30.90;;;;;;5053841;28;19931;-68
2021/06/09 07:01:30;;;;;;;;;;;38.70;30.10;;;;;;5053370;28;21044;-69
2021/06/09 07:03:56;;;;;;;;;;;39.10;29.20;;;;;;5071744;28;19928;-68
2021/06/09 07:06:22;;;;;;;;;;;39.40;29.00;;;;;;5054164;28;19917;-70
2021/06/09 07:08:49;;;;;;;;;;;40.00;28.70;;;;;;5071117;28;19920;-68
2021/06/09 07:11:15;;;;;;;;;;;40.50;28.10;;;;;;5071627;28;19921;-68
2021/06/09 07:13:41;;;;;;;;;;;40.80;27.60;;;;;;5070972;28;19917;-68
2021/06/09 07:16:09;;;;;;;;;;;41.30;27.30;;;;;;5071478;28;19916;-69
2021/06/09 07:18:41;;;;;;;;;;;41.80;27.10;;;;;;5037629;28;19928;-70
2021/06/09 07:21:07;;;;;;;;;;;42.10;26.50;;;;;;5071243;28;20292;-69
2021/06/09 07:23:32;;;;;;;;;;;42.50;26.30;;;;;;5053236;28;19913;-69
2021/06/09 07:25:58;;;;;;;;;;;42.70;25.70;;;;;;5053084;28;19916;-69
2021/06/09 07:28:25;;;;;;;;;;;42.90;25.50;;;;;;5071440;28;20387;-69
2021/06/09 07:30:51;;;;;;;;;;;43.20;25.20;;;;;;5071457;28;19917;-69
2021/06/09 07:33:17;;;;;;;;;;;43.50;24.80;;;;;;5070387;28;19920;-69
2021/06/09 07:35:43;;;;;;;;;;;43.40;24.20;;;;;;5053360;28;19927;-69
2021/06/09 07:38:12;;;;;;;;;;;43.30;24.00;;;;;;5053139;28;19920;-69
2021/06/09 07:40:39;;;;;;;;;;;43.20;23.90;;;;;;5071137;28;19943;-69
2021/06/09 07:43:10;;;;;;;;;;;43.40;23.80;;;;;;5071125;28;20371;-68
2021/06/09 07:45:36;;;;;;;;;;;43.70;23.70;;;;;;5052915;28;20007;-67
2021/06/09 07:48:02;;;;;;;;;;;43.90;23.60;;;;;;5070919;28;20010;-68
2021/06/09 07:50:36;;;;;;;;;;;44.40;23.40;;;;;;5070860;28;20011;-68
2021/06/09 07:53:06;;;;;;;;;;;44.90;23.20;;;;;;5070838;28;19920;-67
2021/06/09 07:55:35;;;;;;;;;;;45.20;22.90;;;;;;5070970;28;19917;-69
2021/06/09 07:58:01;;;;;;;;;;;45.60;22.80;;;;;;5070602;28;20352;-69
2021/06/09 08:00:27;;;;;;;;;;;45.80;22.30;;;;;;5053427;28;20400;-69
2021/06/09 08:02:54;;;;;;;;;;;45.70;22.10;;;;;;5070426;28;20013;-68
2021/06/09 08:05:20;;;;;;;;;;;45.10;22.00;;;;;;5071007;28;20414;-67
2021/06/09 08:07:46;;;;;;;;;;;44.80;22.10;;;;;;5053004;28;19913;-67
2021/06/09 08:10:12;;;;;;;;;;;44.60;22.10;;;;;;5052493;28;20200;-69
2021/06/09 08:12:38;;;;;;;;;;;44.40;22.10;;;;;;5053051;28;20388;-70
2021/06/09 08:15:07;;;;;;;;;;;44.10;22.00;;;;;;5070248;28;20046;-67
2021/06/09 08:17:32;;;;;;;;;;;44.20;22.00;;;;;;5070946;28;19920;-69
2021/06/09 08:19:58;;;;;;;;;;;44.90;22.40;;;;;;5071042;28;20027;-68
2021/06/09 08:22:24;;;;;;;;;;;45.60;22.10;;;;;;5070366;28;19974;-68
2021/06/09 08:24:49;;;;;;;;;;;46.50;22.00;;;;;;5052650;28;20394;-67
2021/06/09 08:27:15;;;;;;;;;;;47.10;21.50;;;;;;5070375;28;20444;-67
2021/06/09 08:29:41;;;;;;;;;;;47.40;21.20;;;;;;5070757;28;19916;-70
2021/06/09 08:32:07;;;;;;;;;;;47.50;21.00;;;;;;5070762;28;20277;-69
2021/06/09 08:34:33;;;;;;;;;;;47.50;20.90;;;;;;5070487;28;20427;-68
2021/06/09 08:36:59;;;;;;;;;;;47.50;20.90;;;;;;5039757;28;20376;-68
2021/06/09 08:39:26;;;;;;;;;;;47.50;21.00;;;;;;5074488;28;19959;-68
2021/06/09 08:41:54;;;;;;;;;;;47.70;20.90;;;;;;5073909;28;19970;-69
2021/06/09 08:44:20;;;;;;;;;;;47.90;20.80;;;;;;5039676;28;20019;-68
2021/06/09 08:46:46;;;;;;;;;;;48.10;20.60;;;;;;5073715;28;20352;-68
2021/06/09 08:49:12;;;;;;;;;;;48.10;20.50;;;;;;5093124;28;19916;-69
2021/06/09 08:51:38;;;;;;;;;;;48.10;20.20;;;;;;5094360;28;19944;-67
2021/06/09 08:54:07;;;;;;;;;;;46.20;19.70;;;;;;5092876;28;19924;-67
2021/06/09 08:56:33;;;;;;;;;;;44.00;20.20;;;;;;5075960;28;20321;-69
2021/06/09 08:58:58;;;;;;;;;;;42.80;21.40;;;;;;5059476;28;19916;-67
2021/06/09 09:01:26;;;;;;;;;;;43.30;21.70;;;;;;5093860;28;19927;-68
2021/06/09 09:03:51;;;;;;;;;;;42.80;21.40;;;;;;5094201;28;19912;-69
2021/06/09 09:06:19;;;;;;;;;;;43.50;22.30;;;;;;5075666;28;20343;-69
2021/06/09 09:08:45;;;;;;;;;;;45.20;22.40;;;;;;5094209;28;20325;-69
2021/06/09 09:11:11;;;;;;;;;;;47.00;22.00;;;;;;5076164;28;19966;-69
2021/06/09 09:13:37;;;;;;;;;;;48.60;21.40;;;;;;5093252;28;20360;-69
2021/06/09 09:16:03;;;;;;;;;;;49.40;20.80;;;;;;5094026;28;19916;-68
2021/06/09 09:18:45;;;;;;;;;;;49.80;20.60;;;;;;5058573;28;19927;-67
2021/06/09 09:21:11;;;;;;;;;;;50.10;20.40;;;;;;5093962;28;20007;-68
2021/06/09 09:23:44;;;;;;;;;;;50.50;20.10;;;;;;5074880;28;19973;-69
2021/06/09 09:26:22;;;;;;;;;;;48.70;19.70;;;;;;5093742;28;19916;-69
2021/06/09 09:28:47;;;;;;;;;;;45.80;19.90;;;;;;5093177;28;19926;-67
2021/06/09 09:31:15;;;;;;;;;;;45.00;21.10;;;;;;5093634;28;19912;-68
2021/06/09 09:33:41;;;;;;;;;;;46.20;21.50;;;;;;5075430;28;19916;-69
2021/06/09 09:36:21;;;;;;;;;;;47.00;21.10;;;;;;5093243;28;19916;-67
2021/06/09 09:38:47;;;;;;;;;;;47.90;21.30;;;;;;5075053;28;20391;-67
2021/06/09 09:41:14;;;;;;;;;;;49.30;20.90;;;;;;5093506;28;19946;-69
2021/06/09 09:43:41;;;;;;;;;;;50.30;20.40;;;;;;5058569;28;19916;-69
2021/06/09 09:46:07;;;;;;;;;;;50.80;20.30;;;;;;5092308;28;20401;-66
2021/06/09 09:48:36;;;;;;;;;;;51.60;20.20;;;;;;5074804;28;19916;-68
2021/06/09 09:51:03;;;;;;;;;;;51.80;20.10;;;;;;5075078;28;19912;-68
2021/06/09 09:53:30;;;;;;;;;;;49.80;19.40;;;;;;5074221;28;20403;-69
2021/06/09 09:55:58;;;;;;;;;;;46.90;19.70;;;;;;5093358;28;19916;-67
2021/06/09 09:58:26;;;;;;;;;;;44.10;20.30;;;;;;5092660;28;19920;-72
2021/06/09 10:00:52;;;;;;;;;;;41.90;21.00;;;;;;5093243;28;19923;-73
2021/06/09 10:03:18;;;;;;;;;;;40.60;21.80;;;;;;5074621;28;19920;-73
2021/06/09 10:05:47;;;;;;;;;;;39.40;22.30;;;;;;5074738;28;19916;-74
2021/06/09 10:08:13;;;;;;;;;;;38.30;22.80;;;;;;5092702;28;19950;-73
2021/06/09 10:10:38;;;;;;;;;;;38.60;24.20;;;;;;5092722;28;19912;-75
2021/06/09 10:13:11;;;;;;;;;;;41.10;24.60;;;;;;5092386;28;20010;-74
2021/06/09 10:15:46;;;;;;;;;;;44.00;23.70;;;;;;5092415;28;20006;-71
2021/06/09 10:18:19;;;;;;;;;;;46.40;22.70;;;;;;5074339;28;20364;-74
2021/06/09 10:20:49;;;;;;;;;;;47.70;21.60;;;;;;5057929;28;19920;-75
2021/06/09 10:23:32;;;;;;;;;;;48.40;21.20;;;;;;5073967;28;19912;-72
2021/06/09 10:26:09;;;;;;;;;;;49.20;21.00;;;;;;5092150;28;19945;-74
2021/06/09 10:28:53;;;;;;;;;;;50.10;21.00;;;;;;5092562;28;20006;-75
2021/06/09 10:31:18;;;;;;;;;;;50.70;20.60;;;;;;5092256;28;19923;-75
2021/06/09 10:33:44;;;;;;;;;;;51.00;20.50;;;;;;5092266;28;20333;-73
2021/06/09 10:36:10;;;;;;;;;;;51.50;20.50;;;;;;5091165;28;19920;-75
2021/06/09 10:38:36;;;;;;;;;;;51.80;20.20;;;;;;5073652;28;19924;-75
2021/06/09 10:41:01;;;;;;;;;;;52.10;20.20;;;;;;5074074;28;19916;-73
2021/06/09 10:43:27;;;;;;;;;;;52.70;20.20;;;;;;5091284;28;20295;-73
2021/06/09 10:45:53;;;;;;;;;;;53.10;20.10;;;;;;5092132;28;20003;-74
2021/06/09 10:48:19;;;;;;;;;;;53.20;19.90;;;;;;5091835;28;20257;-74
2021/06/09 10:50:45;;;;;;;;;;;52.80;19.70;;;;;;5089749;28;19955;-72
2021/06/09 10:53:10;;;;;;;;;;;51.20;19.50;;;;;;5095808;28;19920;-74
2021/06/09 10:55:36;;;;;;;;;;;50.70;20.00;;;;;;5091204;28;19970;-75
2021/06/09 10:58:02;;;;;;;;;;;50.90;20.10;;;;;;5072483;28;20372;-77
2021/06/09 11:00:28;;;;;;;;;;;51.30;20.10;;;;;;5090467;28;19926;-74
2021/06/09 11:02:55;;;;;;;;;;;50.80;19.80;;;;;;5089360;28;20346;-75
2021/06/09 11:05:21;;;;;;;;;;;50.40;20.10;;;;;;5092013;28;19920;-73
2021/06/09 11:07:47;;;;;;;;;;;50.60;20.00;;;;;;5091556;28;19920;-73
2021/06/09 11:10:14;;;;;;;;;;;51.20;20.30;;;;;;5091387;28;19913;-74
2021/06/09 11:12:41;;;;;;;;;;;50.70;19.60;;;;;;5073188;28;20391;-75
2021/06/09 11:15:10;;;;;;;;;;;48.60;20.20;;;;;;5072410;28;19916;-73
2021/06/09 11:17:36;;;;;;;;;;;48.50;20.70;;;;;;5091142;28;19920;-75
2021/06/09 11:20:12;;;;;;;;;;;49.30;21.10;;;;;;5089183;28;19924;-72
2021/06/09 11:22:43;;;;;;;;;;;49.30;20.50;;;;;;5089481;28;20402;-70
2021/06/09 11:25:12;;;;;;;;;;;48.20;20.40;;;;;;5070154;28;20299;-71
2021/06/09 11:27:47;;;;;;;;;;;47.90;20.80;;;;;;5070578;28;19938;-70
2021/06/09 11:30:26;;;;;;;;;;;47.10;20.40;;;;;;5090512;28;19916;-70
2021/06/09 11:32:52;;;;;;;;;;;45.90;20.90;;;;;;5090533;28;20247;-71
2021/06/09 11:35:22;;;;;;;;;;;44.20;20.80;;;;;;5090387;28;19948;-71
2021/06/09 11:38:06;;;;;;;;;;;42.40;21.50;;;;;;5090339;28;19924;-69
2021/06/09 11:40:51;;;;;;;;;;;40.80;21.70;;;;;;5072571;28;19939;-70
2021/06/09 11:43:17;;;;;;;;;;;39.00;22.70;;;;;;5089960;28;20383;-69
2021/06/09 11:46:03;;;;;;;;;;;37.60;23.40;;;;;;5072361;28;19924;-69
2021/06/09 11:48:29;;;;;;;;;;;36.90;24.00;;;;;;5091171;28;19916;-67
2021/06/09 11:51:16;;;;;;;;;;;36.30;24.10;;;;;;5091480;28;19917;-67
2021/06/09 11:53:43;;;;;;;;;;;35.40;24.50;;;;;;5070280;28;20406;-67
2021/06/09 11:56:15;;;;;;;;;;;34.60;25.10;;;;;;5063022;28;20057;-66
2021/06/09 11:58:41;;;;;;;;;;;34.80;26.00;;;;;;5070562;28;20275;-67
2021/06/09 12:01:08;;;;;;;;;;;35.60;26.20;;;;;;5072594;28;20265;-69
2021/06/09 12:03:37;;;;;;;;;;;36.40;26.00;;;;;;5072417;28;19970;-69
2021/06/09 12:06:19;;;;;;;;;;;36.40;25.40;;;;;;5071836;28;20306;-68
2021/06/09 12:08:45;;;;;;;;;;;36.40;25.80;;;;;;5090738;28;19920;-70
2021/06/09 12:11:11;;;;;;;;;;;36.20;25.80;;;;;;5076147;28;20373;-71
2021/06/09 12:13:37;;;;;;;;;;;35.90;25.80;;;;;;5095176;28;19947;-72
2021/06/09 12:16:05;;;;;;;;;;;35.40;26.00;;;;;;5094764;28;19916;-71
2021/06/09 12:18:31;;;;;;;;;;;34.90;26.80;;;;;;5095106;28;20284;-70
2021/06/09 12:21:07;;;;;;;;;;;34.60;26.50;;;;;;5094794;28;19970;-70
2021/06/09 12:23:33;;;;;;;;;;;34.30;27.30;;;;;;5076558;28;19985;-72
2021/06/09 12:25:59;;;;;;;;;;;34.00;27.10;;;;;;5094654;28;20357;-71
2021/06/09 12:28:24;;;;;;;;;;;33.60;27.00;;;;;;5093155;28;20511;-70
2021/06/09 12:30:55;;;;;;;;;;;33.10;27.30;;;;;;5060314;28;20372;-70
2021/06/09 12:33:32;;;;;;;;;;;32.60;27.70;;;;;;5092220;28;20526;-69
2021/06/09 12:35:57;;;;;;;;;;;32.30;28.10;;;;;;5075196;28;20269;-71
2021/06/09 12:38:26;;;;;;;;;;;31.80;28.50;;;;;;5094793;28;19922;-71
2021/06/09 12:40:52;;;;;;;;;;;31.40;28.80;;;;;;5094618;28;19916;-71
2021/06/09 12:43:21;;;;;;;;;;;31.20;29.40;;;;;;5094439;28;19927;-71
2021/06/09 12:45:47;;;;;;;;;;;31.10;29.80;;;;;;5094230;28;19916;-69
2021/06/09 12:48:16;;;;;;;;;;;31.10;29.90;;;;;;5059601;28;20016;-71
2021/06/09 12:50:43;;;;;;;;;;;31.00;30.30;;;;;;5094199;28;20399;-71
2021/06/09 12:53:19;;;;;;;;;;;31.00;30.40;;;;;;5076177;28;19954;-72
2021/06/09 12:55:53;;;;;;;;;;;30.90;30.20;;;;;;5080985;28;20316;-70
2021/06/09 12:58:21;;;;;;;;;;;30.80;30.40;;;;;;5060540;28;20023;-72
2021/06/09 13:00:51;;;;;;;;;;;30.70;30.50;;;;;;5066959;28;19919;-70
2021/06/09 13:03:22;;;;;;;;;;;30.70;30.90;;;;;;5045788;28;19920;-73
2021/06/09 13:05:48;;;;;;;;;;;30.60;31.10;;;;;;5079497;28;19927;-71
2021/06/09 13:08:14;;;;;;;;;;;30.70;31.40;;;;;;5067793;28;19917;-73
2021/06/09 13:10:41;;;;;;;;;;;30.60;31.40;;;;;;5064932;28;20459;-72
2021/06/09 13:13:07;;;;;;;;;;;30.60;31.50;;;;;;5084642;28;20110;-71
2021/06/09 13:15:33;;;;;;;;;;;30.70;31.90;;;;;;5082517;28;19996;-71
2021/06/09 13:18:00;;;;;;;;;;;31.00;32.00;;;;;;5085014;28;19927;-73
2021/06/09 13:20:27;;;;;;;;;;;31.10;31.80;;;;;;5063650;28;20039;-69
2021/06/09 13:22:53;;;;;;;;;;;31.20;31.80;;;;;;5087914;28;19917;-68
2021/06/09 13:25:21;;;;;;;;;;;31.40;31.80;;;;;;5075929;28;19912;-70
2021/06/09 13:27:52;;;;;;;;;;;31.50;31.50;;;;;;5093421;28;19938;-67
2021/06/09 13:30:20;;;;;;;;;;;31.60;31.10;;;;;;5075614;28;20380;-71
2021/06/09 13:32:47;;;;;;;;;;;31.30;31.00;;;;;;5054556;28;19935;-69
2021/06/09 13:35:19;;;;;;;;;;;31.10;31.00;;;;;;5072187;28;19916;-67
2021/06/09 13:37:45;;;;;;;;;;;30.70;31.30;;;;;;5072998;28;20339;-68
2021/06/09 13:40:12;;;;;;;;;;;30.40;31.40;;;;;;5072679;28;19939;-65
2021/06/09 13:42:40;;;;;;;;;;;30.20;32.00;;;;;;5069830;28;20364;-69
2021/06/09 13:45:07;;;;;;;;;;;30.10;32.30;;;;;;5062685;28;19923;-66
2021/06/09 13:47:36;;;;;;;;;;;30.00;32.20;;;;;;5061055;28;20071;-66
2021/06/09 13:50:07;;;;;;;;;;;29.80;32.30;;;;;;5047605;28;20436;-67
2021/06/09 13:52:34;;;;;;;;;;;29.60;32.60;;;;;;5063587;28;19923;-66
2021/06/09 13:55:00;;;;;;;;;;;29.50;32.80;;;;;;5053867;28;19912;-67
2021/06/09 13:57:28;;;;;;;;;;;29.50;33.10;;;;;;5060559;28;20527;-68
2021/06/09 13:59:59;;;;;;;;;;;29.50;33.50;;;;;;5080583;28;19927;-67
2021/06/09 14:02:32;;;;;;;;;;;29.60;33.30;;;;;;5071764;28;20019;-65
2021/06/09 14:05:03;;;;;;;;;;;29.60;33.60;;;;;;5072670;28;19927;-65
2021/06/09 14:07:36;;;;;;;;;;;29.70;33.80;;;;;;5054069;28;20038;-67
2021/06/09 14:10:03;;;;;;;;;;;29.80;33.80;;;;;;5054343;28;19927;-67
2021/06/09 14:12:37;;;;;;;;;;;29.80;33.90;;;;;;5072699;28;19920;-64
2021/06/09 14:15:06;;;;;;;;;;;29.80;33.90;;;;;;5037477;28;19916;-68
2021/06/09 14:17:32;;;;;;;;;;;29.70;33.90;;;;;;5054371;28;19919;-70
2021/06/09 14:20:04;;;;;;;;;;;29.70;34.10;;;;;;5054398;28;19920;-67